createdAt,value
2023-06-21T00:00:05.132Z,245.74
2023-06-21T00:01:05.188Z,246.58
2023-06-21T00:02:05.123Z,244.03
2023-06-21T00:03:05.257Z,241.91
2023-06-21T00:04:05.451Z,246.32
2023-06-21T00:05:05.288Z,247.09
2023-06-21T00:06:05.288Z,247.11
2023-06-21T00:07:05.463Z,249.92
2023-06-21T00:08:05.442Z,248.63
2023-06-21T00:09:05.507Z,248.33
2023-06-21T00:10:05.578Z,249.12
2023-06-21T00:11:05.556Z,248.50
2023-06-21T00:12:05.635Z,246.64
2023-06-21T00:13:05.639Z,245.89
2023-06-21T00:14:05.684Z,246.09
2023-06-21T00:15:05.724Z,247.78
2023-06-21T00:16:05.694Z,249.05
2023-06-21T00:17:05.768Z,249.88
2023-06-21T00:18:05.844Z,253.56
2023-06-21T00:19:05.759Z,250.34
2023-06-21T00:20:05.883Z,248.23
2023-06-21T00:21:05.943Z,248.69
2023-06-21T00:22:06.055Z,249.92
2023-06-21T00:23:06.072Z,248.85
2023-06-21T00:24:06.171Z,247.99
2023-06-21T00:25:06.249Z,249.50
2023-06-21T00:26:06.278Z,248.13
2023-06-21T00:27:06.330Z,248.70
2023-06-21T00:28:06.373Z,247.36
2023-06-21T00:29:06.456Z,246.62
2023-06-21T00:30:06.431Z,247.28
2023-06-21T00:31:06.500Z,249.88
2023-06-21T00:32:06.592Z,252.10
2023-06-21T00:33:06.642Z,249.01
2023-06-21T00:34:06.647Z,248.28
2023-06-21T00:35:06.680Z,240.66
2023-06-21T00:36:06.601Z,235.01
2023-06-21T00:37:06.689Z,231.54
2023-06-21T00:38:06.670Z,230.26
2023-06-21T00:39:06.741Z,230.77
2023-06-21T00:40:06.635Z,232.69
2023-06-21T00:41:06.612Z,236.63
2023-06-21T00:42:06.647Z,244.02
2023-06-21T00:43:06.729Z,246.44
2023-06-21T00:44:06.602Z,250.00
2023-06-21T00:45:06.649Z,250.00
2023-06-21T00:46:06.694Z,249.52
2023-06-21T00:47:06.761Z,249.05
2023-06-21T00:48:06.732Z,247.17
2023-06-21T00:49:06.718Z,242.74
2023-06-21T00:50:06.646Z,245.68
2023-06-21T00:51:06.659Z,253.64
2023-06-21T00:52:06.704Z,254.13
2023-06-21T00:53:06.659Z,247.75
2023-06-21T00:54:06.634Z,248.06
2023-06-21T00:55:06.638Z,250.92
2023-06-21T00:56:06.648Z,249.25
2023-06-21T00:57:06.687Z,243.10
2023-06-21T00:58:06.666Z,242.66
2023-06-21T00:59:06.763Z,242.41
2023-06-21T01:00:06.715Z,242.05
2023-06-21T01:01:06.897Z,238.69
2023-06-21T01:02:06.894Z,234.45
2023-06-21T01:03:06.954Z,235.22
2023-06-21T01:04:06.901Z,231.74
2023-06-21T01:05:06.988Z,227.01
2023-06-21T01:06:06.916Z,229.27
2023-06-21T01:07:06.927Z,226.12
2023-06-21T01:08:07.045Z,224.69
2023-06-21T01:09:07.051Z,222.06
2023-06-21T01:10:07.141Z,220.01
2023-06-21T01:11:07.197Z,219.48
2023-06-21T01:12:07.273Z,233.64
2023-06-21T01:13:07.276Z,233.06
2023-06-21T01:14:07.321Z,233.02
2023-06-21T01:15:07.307Z,232.52
2023-06-21T01:16:07.253Z,231.55
2023-06-21T01:17:07.370Z,232.07
2023-06-21T01:18:07.380Z,233.78
2023-06-21T01:19:07.405Z,242.68
2023-06-21T01:20:07.485Z,241.00
2023-06-21T01:21:07.567Z,240.76
2023-06-21T01:22:07.537Z,241.57
2023-06-21T01:23:07.614Z,243.52
2023-06-21T01:24:07.762Z,248.94
2023-06-21T01:25:07.698Z,246.93
2023-06-21T01:26:07.771Z,244.76
2023-06-21T01:27:07.897Z,245.42
2023-06-21T01:28:07.851Z,242.39
2023-06-21T01:29:07.806Z,239.52
2023-06-21T01:30:07.817Z,238.86
2023-06-21T01:31:07.899Z,234.60
2023-06-21T01:32:07.847Z,231.88
2023-06-21T01:33:07.833Z,232.23
2023-06-21T01:34:07.792Z,232.47
2023-06-21T01:35:10.137Z,233.04
2023-06-21T01:36:07.792Z,232.37
2023-06-21T01:37:07.830Z,230.89
2023-06-21T01:38:08.638Z,232.39
2023-06-21T01:39:07.760Z,228.97
2023-06-21T01:40:07.737Z,215.37
2023-06-21T01:41:07.710Z,211.04
2023-06-21T01:42:07.705Z,214.98
2023-06-21T01:43:07.785Z,210.61
2023-06-21T01:44:07.770Z,212.37
2023-06-21T01:45:07.680Z,217.02
2023-06-21T01:46:07.884Z,216.01
2023-06-21T01:47:07.720Z,211.02
2023-06-21T01:48:07.725Z,207.61
2023-06-21T01:49:07.692Z,206.84
2023-06-21T01:50:07.685Z,199.95
2023-06-21T01:51:07.741Z,196.62
2023-06-21T01:52:07.679Z,201.31
2023-06-21T01:53:07.654Z,208.21
2023-06-21T01:54:07.732Z,207.50
2023-06-21T01:55:07.692Z,211.58
2023-06-21T01:56:07.738Z,220.44
2023-06-21T01:57:07.650Z,235.28
2023-06-21T01:58:07.666Z,245.73
2023-06-21T01:59:07.664Z,248.76
2023-06-21T02:00:07.687Z,254.61
2023-06-21T02:01:07.713Z,249.37
2023-06-21T02:02:07.745Z,243.91
2023-06-21T02:03:07.783Z,241.18
2023-06-21T02:04:07.796Z,239.41
2023-06-21T02:05:07.885Z,241.57
2023-06-21T02:06:07.914Z,247.50
2023-06-21T02:07:07.964Z,250.00
2023-06-21T02:08:08.070Z,250.00
2023-06-21T02:09:08.082Z,250.01
2023-06-21T02:10:08.119Z,250.02
2023-06-21T02:11:08.164Z,250.00
2023-06-21T02:12:08.206Z,250.00
2023-06-21T02:13:08.181Z,250.10
2023-06-21T02:14:08.201Z,250.07
2023-06-21T02:15:08.155Z,250.22
2023-06-21T02:16:08.105Z,250.01
2023-06-21T02:17:08.646Z,250.00
2023-06-21T02:18:08.145Z,248.39
2023-06-21T02:19:08.125Z,245.95
2023-06-21T02:20:08.166Z,244.79
2023-06-21T02:21:08.162Z,246.28
2023-06-21T02:22:08.120Z,247.49
2023-06-21T02:23:08.156Z,248.06
2023-06-21T02:24:08.177Z,245.47
2023-06-21T02:25:08.098Z,244.04
2023-06-21T02:26:08.139Z,243.09
2023-06-21T02:27:08.177Z,242.64
2023-06-21T02:28:08.110Z,242.03
2023-06-21T02:29:08.108Z,242.09
2023-06-21T02:30:08.106Z,242.37
2023-06-21T02:31:08.099Z,243.08
2023-06-21T02:32:08.031Z,242.16
2023-06-21T02:33:08.046Z,242.19
2023-06-21T02:34:08.121Z,242.60
2023-06-21T02:35:08.043Z,243.32
2023-06-21T02:36:08.055Z,244.62
2023-06-21T02:37:08.014Z,247.39
2023-06-21T02:38:08.152Z,248.55
2023-06-21T02:39:08.028Z,248.89
2023-06-21T02:40:08.032Z,249.34
2023-06-21T02:41:08.077Z,248.39
2023-06-21T02:42:08.664Z,248.89
2023-06-21T02:43:08.016Z,249.80
2023-06-21T02:44:07.994Z,249.69
2023-06-21T02:45:08.001Z,249.97
2023-06-21T02:46:08.078Z,248.68
2023-06-21T02:47:07.998Z,249.69
2023-06-21T02:48:08.140Z,250.64
2023-06-21T02:49:08.026Z,249.57
2023-06-21T02:50:07.980Z,250.00
2023-06-21T02:51:07.994Z,246.79
2023-06-21T02:52:08.014Z,243.80
2023-06-21T02:53:08.063Z,243.54
2023-06-21T02:54:08.075Z,244.09
2023-06-21T02:55:08.130Z,245.79
2023-06-21T02:56:08.159Z,249.58
2023-06-21T02:57:08.130Z,246.21
2023-06-21T02:58:08.143Z,245.36
2023-06-21T02:59:08.168Z,245.59
2023-06-21T03:00:08.125Z,244.21
2023-06-21T03:01:08.210Z,244.53
2023-06-21T03:02:08.190Z,246.36
2023-06-21T03:03:08.283Z,248.47
2023-06-21T03:04:08.141Z,246.45
2023-06-21T03:05:08.186Z,246.31
2023-06-21T03:06:08.103Z,245.45
2023-06-21T03:07:08.057Z,250.00
2023-06-21T03:08:08.090Z,249.65
2023-06-21T03:09:08.008Z,249.94
2023-06-21T03:10:08.020Z,250.00
2023-06-21T03:11:08.061Z,250.00
2023-06-21T03:12:08.031Z,246.91
2023-06-21T03:13:08.067Z,244.48
2023-06-21T03:14:08.043Z,242.81
2023-06-21T03:15:08.021Z,242.11
2023-06-21T03:16:08.018Z,243.40
2023-06-21T03:17:08.022Z,243.48
2023-06-21T03:18:08.053Z,244.64
2023-06-21T03:19:08.112Z,246.14
2023-06-21T03:20:08.056Z,248.91
2023-06-21T03:21:07.996Z,249.30
2023-06-21T03:22:07.976Z,249.61
2023-06-21T03:23:07.957Z,249.65
2023-06-21T03:24:07.994Z,249.97
2023-06-21T03:25:07.912Z,250.13
2023-06-21T03:26:07.921Z,250.25
2023-06-21T03:27:07.920Z,249.64
2023-06-21T03:28:07.928Z,250.04
2023-06-21T03:29:08.047Z,248.74
2023-06-21T03:30:07.940Z,247.12
2023-06-21T03:31:07.913Z,245.08
2023-06-21T03:32:07.928Z,245.44
2023-06-21T03:33:08.009Z,247.68
2023-06-21T03:34:07.943Z,246.63
2023-06-21T03:35:07.901Z,246.15
2023-06-21T03:36:07.922Z,248.27
2023-06-21T03:37:07.980Z,247.98
2023-06-21T03:38:08.053Z,246.28
2023-06-21T03:39:08.033Z,245.50
2023-06-21T03:40:08.179Z,245.90
2023-06-21T03:41:08.134Z,245.21
2023-06-21T03:42:08.218Z,244.77
2023-06-21T03:43:08.208Z,243.85
2023-06-21T03:44:08.256Z,243.29
2023-06-21T03:45:08.289Z,243.88
2023-06-21T03:46:08.266Z,244.30
2023-06-21T03:47:08.163Z,245.35
2023-06-21T03:48:08.250Z,245.90
2023-06-21T03:49:08.208Z,246.81
2023-06-21T03:50:08.213Z,247.41
2023-06-21T03:51:08.136Z,246.31
2023-06-21T03:52:09.171Z,246.40
2023-06-21T03:53:08.181Z,246.69
2023-06-21T03:54:08.166Z,246.79
2023-06-21T03:55:08.144Z,247.91
2023-06-21T03:56:08.183Z,252.65
2023-06-21T03:57:08.147Z,247.64
2023-06-21T03:58:08.122Z,247.04
2023-06-21T03:59:08.117Z,249.18
2023-06-21T04:00:08.121Z,250.27
2023-06-21T04:01:08.147Z,249.96
2023-06-21T04:02:08.126Z,249.99
2023-06-21T04:03:08.245Z,250.04
2023-06-21T04:04:08.189Z,250.59
2023-06-21T04:05:08.104Z,252.08
2023-06-21T04:06:08.043Z,252.33
2023-06-21T04:07:08.076Z,249.37
2023-06-21T04:08:08.229Z,249.44
2023-06-21T04:09:09.039Z,249.44
2023-06-21T04:10:07.989Z,248.44
2023-06-21T04:11:08.026Z,247.10
2023-06-21T04:12:08.075Z,249.62
2023-06-21T04:13:08.053Z,251.38
2023-06-21T04:14:08.052Z,249.56
2023-06-21T04:15:08.092Z,249.96
2023-06-21T04:16:08.028Z,250.05
2023-06-21T04:17:08.009Z,250.26
2023-06-21T04:18:08.128Z,250.90
2023-06-21T04:19:08.048Z,251.22
2023-06-21T04:20:08.032Z,248.99
2023-06-21T04:21:07.990Z,246.63
2023-06-21T04:22:07.973Z,245.08
2023-06-21T04:23:08.042Z,245.38
2023-06-21T04:24:08.008Z,245.36
2023-06-21T04:25:07.979Z,245.00
2023-06-21T04:26:07.909Z,243.13
2023-06-21T04:27:07.949Z,241.20
2023-06-21T04:28:08.063Z,240.88
2023-06-21T04:29:07.978Z,245.00
2023-06-21T04:30:07.942Z,248.92
2023-06-21T04:31:07.929Z,250.00
2023-06-21T04:32:08.005Z,247.92
2023-06-21T04:33:08.081Z,246.03
2023-06-21T04:34:08.093Z,245.40
2023-06-21T04:35:08.139Z,245.67
2023-06-21T04:36:08.234Z,246.77
2023-06-21T04:37:08.226Z,243.60
2023-06-21T04:38:08.323Z,245.18
2023-06-21T04:39:08.390Z,246.67
2023-06-21T04:40:16.964Z,248.57
2023-06-21T04:41:09.354Z,248.70
2023-06-21T04:42:08.339Z,248.63
2023-06-21T04:43:08.377Z,245.68
2023-06-21T04:44:08.326Z,242.45
2023-06-21T04:45:08.307Z,240.43
2023-06-21T04:46:08.386Z,238.19
2023-06-21T04:47:08.279Z,235.03
2023-06-21T04:48:08.336Z,231.71
2023-06-21T04:49:08.367Z,232.42
2023-06-21T04:50:20.258Z,233.95
2023-06-21T04:51:09.271Z,234.01
2023-06-21T04:52:08.238Z,234.62
2023-06-21T04:53:08.316Z,236.06
2023-06-21T04:54:08.352Z,238.36
2023-06-21T04:55:08.224Z,241.59
2023-06-21T04:56:08.261Z,242.27
2023-06-21T04:57:08.193Z,242.45
2023-06-21T04:58:08.321Z,243.91
2023-06-21T04:59:08.221Z,244.87
2023-06-21T05:01:37.891Z,25.00
2023-06-21T05:02:27.778Z,25.00
2023-06-21T05:03:27.846Z,25.00
2023-06-21T05:04:27.750Z,25.00
2023-06-21T05:05:27.699Z,25.00
2023-06-21T05:06:27.704Z,25.00
2023-06-21T05:07:27.705Z,10.77
2023-06-21T05:08:27.706Z,7.01
2023-06-21T05:09:27.713Z,22.67
2023-06-21T05:10:27.957Z,25.00
2023-06-21T05:11:27.693Z,26.19
2023-06-21T05:12:27.647Z,25.00
2023-06-21T05:13:27.711Z,30.54
2023-06-21T05:14:27.660Z,25.57
2023-06-21T05:15:27.665Z,25.00
2023-06-21T05:16:27.779Z,15.93
2023-06-21T05:17:27.663Z,12.13
2023-06-21T05:18:27.750Z,5.99
2023-06-21T05:19:27.677Z,23.79
2023-06-21T05:20:27.888Z,25.00
2023-06-21T05:21:27.673Z,25.33
2023-06-21T05:22:27.646Z,25.00
2023-06-21T05:23:28.007Z,44.40
2023-06-21T05:24:28.923Z,101.30
2023-06-21T05:25:27.891Z,129.61
2023-06-21T05:26:27.709Z,100.15
2023-06-21T05:27:27.605Z,103.74
2023-06-21T05:28:27.630Z,127.20
2023-06-21T05:29:27.554Z,127.32
2023-06-21T05:30:27.760Z,132.08
2023-06-21T05:31:27.740Z,147.00
2023-06-21T05:32:27.677Z,164.59
2023-06-21T05:33:28.070Z,195.91
2023-06-21T05:34:27.614Z,118.92
2023-06-21T05:35:27.661Z,51.12
2023-06-21T05:36:27.698Z,35.34
2023-06-21T05:37:27.847Z,43.58
2023-06-21T05:38:27.602Z,75.54
2023-06-21T05:39:28.422Z,114.58
2023-06-21T05:40:27.915Z,92.23
2023-06-21T05:41:28.430Z,119.44
2023-06-21T05:42:27.572Z,134.03
2023-06-21T05:43:28.117Z,116.80
2023-06-21T05:44:27.502Z,78.63
2023-06-21T05:46:57.721Z,25.00
2023-06-21T05:47:46.986Z,25.00
2023-06-21T05:48:46.985Z,25.00
2023-06-21T05:49:47.020Z,25.00
2023-06-21T05:50:47.952Z,25.00
2023-06-21T05:51:47.340Z,25.00
2023-06-21T05:52:48.073Z,25.00
2023-06-21T05:53:47.278Z,25.00
2023-06-21T05:54:46.886Z,39.18
2023-06-21T05:55:47.085Z,28.43
2023-06-21T05:56:46.929Z,35.13
2023-06-21T05:57:46.927Z,27.72
2023-06-21T05:58:47.893Z,13.90
2023-06-21T05:59:46.969Z,0.00
2023-06-21T06:00:46.889Z,0.00
2023-06-21T06:01:46.866Z,0.00
2023-06-21T06:02:47.061Z,0.00
2023-06-21T06:03:47.554Z,0.00
2023-06-21T06:04:46.825Z,0.00
2023-06-21T06:05:46.931Z,0.00
2023-06-21T06:06:46.931Z,26.92
2023-06-21T06:07:47.037Z,54.16
2023-06-21T06:08:46.749Z,57.18
2023-06-21T06:09:46.883Z,42.42
2023-06-21T06:10:46.770Z,81.47
2023-06-21T06:11:46.894Z,101.23
2023-06-21T06:12:46.995Z,106.58
2023-06-21T06:13:46.978Z,73.01
2023-06-21T06:14:47.703Z,25.00
2023-06-21T06:15:47.418Z,47.49
2023-06-21T06:16:46.896Z,24.42
2023-06-21T06:17:46.835Z,32.59
2023-06-21T06:18:46.926Z,143.64
2023-06-21T06:19:47.250Z,50.21
2023-06-21T06:20:48.682Z,72.47
2023-06-21T06:21:47.080Z,144.24
2023-06-21T06:22:47.145Z,146.01
2023-06-21T06:23:46.937Z,146.97
2023-06-21T06:24:46.977Z,149.88
2023-06-21T06:25:47.197Z,114.19
2023-06-21T06:26:47.787Z,57.07
2023-06-21T06:27:47.059Z,107.51
2023-06-21T06:28:47.101Z,102.02
2023-06-21T06:29:47.543Z,53.38
2023-06-21T06:30:47.966Z,85.41
2023-06-21T06:31:47.345Z,64.78
2023-06-21T06:32:47.088Z,37.10
2023-06-21T06:33:48.040Z,17.38
2023-06-21T06:34:47.244Z,33.58
2023-06-21T06:35:47.352Z,54.72
2023-06-21T06:36:56.191Z,0.00
2023-06-21T06:43:13.310Z,25.00
2023-06-21T06:44:04.393Z,25.00
2023-06-21T06:45:04.470Z,25.00
2023-06-21T06:46:04.513Z,25.00
2023-06-21T06:47:04.281Z,25.00
2023-06-21T06:48:04.387Z,25.00
2023-06-21T06:49:04.315Z,25.00
2023-06-21T06:50:04.246Z,25.00
2023-06-21T06:51:04.574Z,25.00
2023-06-21T06:52:04.287Z,25.00
2023-06-21T06:53:04.898Z,25.00
2023-06-21T06:54:04.517Z,25.00
2023-06-21T06:55:04.454Z,25.00
2023-06-21T06:56:04.601Z,25.00
2023-06-21T06:57:04.494Z,25.00
2023-06-21T06:58:06.569Z,25.00
2023-06-21T06:59:04.514Z,25.00
2023-06-21T07:00:04.619Z,26.80
2023-06-21T07:01:05.027Z,107.84
2023-06-21T07:02:05.530Z,81.81
2023-06-21T07:03:04.729Z,77.66
2023-06-21T07:04:04.852Z,120.36
2023-06-21T07:05:04.787Z,121.66
2023-06-21T07:06:04.852Z,106.45
2023-06-21T07:07:06.293Z,126.10
2023-06-21T07:08:04.882Z,124.81
2023-06-21T07:09:04.781Z,120.33
2023-06-21T07:10:04.795Z,87.56
2023-06-21T07:11:05.009Z,30.28
2023-06-21T07:12:04.832Z,25.19
2023-06-21T07:13:04.828Z,2.25
2023-06-21T07:14:04.802Z,0.00
2023-06-21T07:15:05.329Z,0.50
2023-06-21T07:16:05.144Z,5.31
2023-06-21T07:17:04.937Z,0.00
2023-06-21T07:18:04.986Z,0.00
2023-06-21T07:19:04.754Z,0.00
2023-06-21T07:20:04.859Z,0.00
2023-06-21T07:21:04.990Z,0.00
2023-06-21T07:22:04.810Z,0.00
2023-06-21T07:23:05.311Z,0.00
2023-06-21T07:24:04.756Z,0.00
2023-06-21T07:25:04.786Z,0.00
2023-06-21T07:26:04.995Z,0.00
2023-06-21T07:27:04.717Z,0.00
2023-06-21T07:28:05.532Z,0.00
2023-06-21T07:29:04.742Z,0.00
2023-06-21T07:30:05.366Z,0.00
2023-06-21T07:31:04.773Z,0.00
2023-06-21T07:32:05.022Z,0.00
2023-06-21T07:33:05.622Z,0.00
2023-06-21T07:34:07.948Z,14.28
2023-06-21T07:35:05.823Z,16.25
2023-06-21T07:36:04.744Z,16.85
2023-06-21T07:37:04.971Z,56.32
2023-06-21T07:38:04.713Z,0.00
2023-06-21T07:39:05.888Z,0.00
2023-06-21T07:40:04.800Z,0.00
2023-06-21T07:41:04.720Z,0.00
2023-06-21T07:42:13.750Z,0.00
2023-06-21T07:43:04.627Z,0.00
2023-06-21T07:44:04.751Z,0.00
2023-06-21T07:45:05.507Z,0.00
2023-06-21T07:46:14.946Z,0.00
2023-06-21T07:47:04.663Z,0.00
2023-06-21T07:48:04.698Z,0.00
2023-06-21T07:49:04.848Z,0.00
2023-06-21T07:50:17.091Z,0.00
2023-06-21T07:51:05.772Z,0.00
2023-06-21T07:52:04.664Z,0.00
2023-06-21T07:53:04.607Z,0.00
2023-06-21T07:54:04.880Z,0.00
2023-06-21T07:55:04.561Z,0.00
2023-06-21T07:56:04.564Z,0.00
2023-06-21T07:57:04.651Z,0.00
2023-06-21T07:58:04.527Z,0.00
2023-06-21T07:59:04.595Z,0.00
2023-06-21T08:00:04.542Z,0.00
2023-06-21T08:01:04.572Z,0.00
2023-06-21T08:02:04.589Z,0.00
2023-06-21T08:03:04.677Z,0.00
2023-06-21T08:04:04.768Z,0.00
2023-06-21T08:05:04.717Z,0.00
2023-06-21T08:06:04.736Z,0.00
2023-06-21T08:07:05.458Z,0.00
2023-06-21T08:08:04.861Z,0.00
2023-06-21T08:09:04.872Z,0.00
2023-06-21T08:10:04.871Z,0.00
2023-06-21T08:11:04.880Z,177.69
2023-06-21T08:12:04.985Z,220.77
2023-06-21T08:13:05.023Z,166.98
2023-06-21T08:14:05.974Z,165.15
2023-06-21T08:15:05.014Z,115.19
2023-06-21T08:16:05.015Z,36.64
2023-06-21T08:17:05.064Z,79.39
2023-06-21T08:18:05.080Z,0.00
2023-06-21T08:19:05.096Z,0.00
2023-06-21T08:20:05.148Z,95.26
2023-06-21T08:21:05.155Z,33.36
2023-06-21T08:22:05.157Z,16.97
2023-06-21T08:23:05.135Z,0.00
2023-06-21T08:24:05.265Z,18.15
2023-06-21T08:25:05.303Z,0.00
2023-06-21T08:26:05.400Z,111.38
2023-06-21T08:27:05.454Z,147.12
2023-06-21T08:28:05.553Z,115.95
2023-06-21T08:29:05.620Z,56.69
2023-06-21T08:30:05.636Z,102.39
2023-06-21T08:31:05.686Z,101.98
2023-06-21T08:32:06.199Z,143.41
2023-06-21T08:33:05.830Z,308.60
2023-06-21T08:34:05.802Z,216.13
2023-06-21T08:35:05.824Z,144.41
2023-06-21T08:36:05.819Z,109.05
2023-06-21T08:37:06.149Z,50.43
2023-06-21T08:38:18.378Z,40.61
2023-06-21T08:39:05.981Z,42.79
2023-06-21T08:40:06.002Z,56.37
2023-06-21T08:41:05.916Z,76.05
2023-06-21T08:42:06.000Z,96.14
2023-06-21T08:43:05.946Z,52.07
2023-06-21T08:44:05.968Z,72.32
2023-06-21T08:45:05.886Z,109.09
2023-06-21T08:46:08.227Z,56.86
2023-06-21T08:47:06.062Z,42.76
2023-06-21T08:48:05.934Z,39.09
2023-06-21T08:49:05.890Z,0.00
2023-06-21T08:50:05.899Z,3.37
2023-06-21T08:51:05.979Z,9.54
2023-06-21T08:52:06.019Z,29.31
2023-06-21T08:53:05.884Z,46.27
2023-06-21T08:54:05.931Z,67.58
2023-06-21T08:55:05.869Z,48.98
2023-06-21T08:56:05.879Z,15.51
2023-06-21T08:57:06.055Z,27.94
2023-06-21T08:58:07.163Z,31.23
2023-06-21T08:59:06.525Z,32.65
2023-06-21T09:00:05.774Z,43.36
2023-06-21T09:01:05.861Z,63.09
2023-06-21T09:02:06.049Z,49.25
2023-06-21T09:03:06.052Z,69.22
2023-06-21T09:04:06.096Z,36.46
2023-06-21T09:05:05.856Z,0.00
2023-06-21T09:06:05.782Z,25.67
2023-06-21T09:07:05.813Z,26.33
2023-06-21T09:08:07.437Z,24.20
2023-06-21T09:09:06.115Z,17.68
2023-06-21T09:10:05.787Z,29.14
2023-06-21T09:11:05.727Z,37.84
2023-06-21T09:12:05.772Z,44.64
2023-06-21T09:13:05.708Z,81.80
2023-06-21T09:14:07.242Z,32.90
2023-06-21T09:15:05.747Z,38.11
2023-06-21T09:16:05.729Z,40.24
2023-06-21T09:17:05.722Z,10.64
2023-06-21T09:18:06.093Z,26.74
2023-06-21T09:19:05.741Z,26.35
2023-06-21T09:20:05.686Z,103.33
2023-06-21T09:21:05.669Z,101.10
2023-06-21T09:22:05.711Z,67.90
2023-06-21T09:23:05.686Z,53.12
2023-06-21T09:24:05.673Z,43.94
2023-06-21T09:25:05.661Z,51.88
2023-06-21T09:26:05.646Z,66.36
2023-06-21T09:27:05.676Z,161.08
2023-06-21T09:28:06.025Z,115.26
2023-06-21T09:29:05.602Z,73.80
2023-06-21T09:30:29.583Z,63.06
2023-06-21T09:31:06.665Z,65.66
2023-06-21T09:32:05.640Z,81.61
2023-06-21T09:33:05.763Z,87.73
2023-06-21T09:34:05.683Z,103.76
2023-06-21T09:35:05.670Z,70.50
2023-06-21T09:36:05.747Z,61.06
2023-06-21T09:37:05.618Z,57.90
2023-06-21T09:38:06.106Z,61.30
2023-06-21T09:39:05.584Z,72.88
2023-06-21T09:40:05.610Z,34.37
2023-06-21T09:41:05.741Z,25.60
2023-06-21T09:42:05.592Z,30.19
2023-06-21T09:43:06.047Z,22.69
2023-06-21T09:44:05.612Z,35.79
2023-06-21T09:45:05.704Z,29.49
2023-06-21T09:46:05.744Z,8.63
2023-06-21T09:47:05.738Z,20.33
2023-06-21T09:48:06.107Z,32.39
2023-06-21T09:49:05.787Z,82.43
2023-06-21T09:50:05.817Z,104.38
2023-06-21T09:51:05.901Z,73.90
2023-06-21T09:52:05.902Z,53.29
2023-06-21T09:53:05.938Z,25.54
2023-06-21T09:54:06.001Z,34.94
2023-06-21T09:55:06.013Z,23.37
2023-06-21T09:56:05.999Z,24.93
2023-06-21T09:57:06.005Z,23.33
2023-06-21T09:58:06.033Z,44.20
2023-06-21T09:59:06.142Z,39.37
2023-06-21T10:00:06.136Z,25.71
2023-06-21T10:01:06.140Z,24.14
2023-06-21T10:02:06.157Z,29.29
2023-06-21T10:03:06.658Z,31.38
2023-06-21T10:04:07.196Z,35.54
2023-06-21T10:05:06.186Z,24.37
2023-06-21T10:06:06.240Z,30.28
2023-06-21T10:07:06.202Z,25.85
2023-06-21T10:08:06.589Z,34.13
2023-06-21T10:09:06.353Z,55.80
2023-06-21T10:10:06.323Z,50.26
2023-06-21T10:11:06.392Z,52.66
2023-06-21T10:12:06.373Z,45.37
2023-06-21T10:13:06.551Z,54.69
2023-06-21T10:14:06.443Z,60.62
2023-06-21T10:15:06.476Z,63.10
2023-06-21T10:16:06.459Z,52.56
2023-06-21T10:17:06.532Z,84.24
2023-06-21T10:18:07.127Z,89.60
2023-06-21T10:19:06.584Z,57.10
2023-06-21T10:20:06.694Z,47.07
2023-06-21T10:21:06.825Z,51.20
2023-06-21T10:22:06.783Z,51.55
2023-06-21T10:23:06.933Z,47.95
2023-06-21T10:24:06.856Z,41.43
2023-06-21T10:25:06.977Z,68.50
2023-06-21T10:26:07.030Z,22.30
2023-06-21T10:27:07.059Z,22.25
2023-06-21T10:28:07.640Z,48.59
2023-06-21T10:29:07.151Z,88.86
2023-06-21T10:30:07.196Z,61.49
2023-06-21T10:31:07.244Z,40.63
2023-06-21T10:32:07.298Z,46.09
2023-06-21T10:33:07.663Z,30.82
2023-06-21T10:34:07.390Z,28.24
2023-06-21T10:35:07.370Z,33.60
2023-06-21T10:36:07.407Z,26.15
2023-06-21T10:37:07.626Z,24.84
2023-06-21T10:38:07.474Z,24.91
2023-06-21T10:39:07.611Z,26.20
2023-06-21T10:40:11.672Z,35.65
2023-06-21T10:41:07.639Z,26.15
2023-06-21T10:42:07.413Z,27.31
2023-06-21T10:43:07.366Z,34.39
2023-06-21T10:44:07.606Z,45.83
2023-06-21T10:45:07.377Z,66.91
2023-06-21T10:46:07.449Z,101.57
2023-06-21T10:47:07.371Z,87.96
2023-06-21T10:48:07.387Z,65.87
2023-06-21T10:49:07.618Z,85.01
2023-06-21T10:50:07.327Z,188.21
2023-06-21T10:51:07.331Z,231.84
2023-06-21T10:52:07.432Z,240.75
2023-06-21T10:53:07.427Z,146.02
2023-06-21T10:54:07.555Z,120.63
2023-06-21T10:55:07.459Z,140.94
2023-06-21T10:56:07.407Z,112.75
2023-06-21T10:57:07.460Z,126.46
2023-06-21T10:58:07.667Z,94.75
2023-06-21T10:59:07.533Z,78.02
2023-06-21T11:00:07.578Z,64.02
2023-06-21T11:01:07.614Z,63.35
2023-06-21T11:02:07.631Z,63.29
2023-06-21T11:03:07.735Z,87.72
2023-06-21T11:04:08.118Z,81.33
2023-06-21T11:05:07.821Z,61.34
2023-06-21T11:06:07.777Z,86.02
2023-06-21T11:07:07.829Z,107.95
2023-06-21T11:08:07.825Z,98.18
2023-06-21T11:09:08.099Z,108.77
2023-06-21T11:10:07.800Z,110.58
2023-06-21T11:11:07.775Z,91.08
2023-06-21T11:12:07.999Z,85.35
2023-06-21T11:13:08.923Z,84.48
2023-06-21T11:14:07.791Z,76.35
2023-06-21T11:15:07.794Z,69.48
2023-06-21T11:16:07.824Z,64.34
2023-06-21T11:17:07.759Z,72.09
2023-06-21T11:18:07.797Z,48.29
2023-06-21T11:19:07.762Z,46.81
2023-06-21T11:20:07.738Z,53.88
2023-06-21T11:21:07.760Z,43.04
2023-06-21T11:22:09.004Z,46.03
2023-06-21T11:23:08.804Z,87.31
2023-06-21T11:24:07.880Z,99.35
2023-06-21T11:25:07.818Z,84.62
2023-06-21T11:26:07.675Z,62.43
2023-06-21T11:27:07.696Z,63.21
2023-06-21T11:28:07.690Z,65.56
2023-06-21T11:29:08.134Z,102.09
2023-06-21T11:30:07.744Z,95.00
2023-06-21T11:31:07.944Z,95.33
2023-06-21T11:32:08.448Z,106.71
2023-06-21T11:33:07.744Z,140.03
2023-06-21T11:34:08.080Z,152.17
2023-06-21T11:35:07.733Z,167.83
2023-06-21T11:36:08.574Z,178.65
2023-06-21T11:37:07.727Z,170.74
2023-06-21T11:38:07.706Z,166.48
2023-06-21T11:39:07.714Z,116.33
2023-06-21T11:40:07.698Z,82.25
2023-06-21T11:41:07.673Z,89.65
2023-06-21T11:42:07.669Z,106.16
2023-06-21T11:43:07.686Z,97.82
2023-06-21T11:44:07.733Z,122.58
2023-06-21T11:45:07.737Z,144.30
2023-06-21T11:46:07.761Z,150.52
2023-06-21T11:47:07.734Z,145.96
2023-06-21T11:48:07.887Z,124.16
2023-06-21T11:49:08.577Z,98.63
2023-06-21T11:50:07.780Z,134.76
2023-06-21T11:51:07.852Z,107.64
2023-06-21T11:52:07.848Z,79.38
2023-06-21T11:53:07.860Z,74.82
2023-06-21T11:54:07.891Z,73.93
2023-06-21T11:55:07.854Z,74.47
2023-06-21T11:56:07.896Z,76.97
2023-06-21T11:57:07.889Z,86.19
2023-06-21T11:58:07.865Z,127.31
2023-06-21T11:59:07.852Z,137.13
2023-06-21T12:00:07.883Z,119.33
2023-06-21T12:01:07.824Z,116.20
2023-06-21T12:02:07.829Z,108.59
2023-06-21T12:03:08.030Z,102.39
2023-06-21T12:04:07.893Z,103.32
2023-06-21T12:05:08.091Z,130.22
2023-06-21T12:06:07.809Z,126.53
2023-06-21T12:07:07.782Z,111.87
2023-06-21T12:08:07.814Z,81.19
2023-06-21T12:09:07.849Z,79.65
2023-06-21T12:10:07.845Z,149.77
2023-06-21T12:11:07.859Z,117.42
2023-06-21T12:12:07.951Z,90.09
2023-06-21T12:13:07.934Z,81.54
2023-06-21T12:14:07.929Z,69.15
2023-06-21T12:15:07.958Z,62.78
2023-06-21T12:16:08.103Z,107.16
2023-06-21T12:17:07.938Z,125.95
2023-06-21T12:18:08.014Z,95.82
2023-06-21T12:19:07.954Z,99.25
2023-06-21T12:20:08.037Z,81.64
2023-06-21T12:21:08.117Z,93.78
2023-06-21T12:22:08.048Z,110.32
2023-06-21T12:23:08.155Z,85.09
2023-06-21T12:24:08.211Z,120.57
2023-06-21T12:25:08.264Z,185.10
2023-06-21T12:26:08.312Z,147.62
2023-06-21T12:27:08.321Z,123.61
2023-06-21T12:28:08.382Z,117.70
2023-06-21T12:29:08.487Z,137.62
2023-06-21T12:30:08.522Z,130.31
2023-06-21T12:31:08.665Z,107.97
2023-06-21T12:32:08.617Z,132.52
2023-06-21T12:33:08.687Z,106.60
2023-06-21T12:34:08.704Z,104.05
2023-06-21T12:35:08.693Z,106.03
2023-06-21T12:36:08.758Z,95.67
2023-06-21T12:37:08.725Z,97.89
2023-06-21T12:38:08.723Z,96.36
2023-06-21T12:39:08.762Z,91.85
2023-06-21T12:40:08.844Z,83.59
2023-06-21T12:41:08.843Z,80.22
2023-06-21T12:42:08.851Z,67.04
2023-06-21T12:43:08.908Z,66.23
2023-06-21T12:44:08.966Z,60.01
2023-06-21T12:45:08.973Z,66.89
2023-06-21T12:46:08.988Z,82.32
2023-06-21T12:47:08.976Z,79.84
2023-06-21T12:48:09.058Z,89.08
2023-06-21T12:49:09.054Z,93.12